createdAt,value
2022-11-12T00:04:12.646Z,1029.68
2022-11-12T00:09:11.982Z,1029.66
2022-11-12T00:14:11.395Z,1029.65
2022-11-12T00:19:10.424Z,1029.62
2022-11-12T00:24:09.759Z,1029.57
2022-11-12T00:29:11.758Z,1029.67
2022-11-12T00:34:07.995Z,1029.57
2022-11-12T00:39:07.313Z,1029.57
2022-11-12T00:44:06.567Z,1029.52
2022-11-12T00:49:06.825Z,1029.23
2022-11-12T00:54:05.001Z,1029.16
2022-11-12T00:59:04.179Z,1029.17
2022-11-12T01:04:04.422Z,1029.22
2022-11-12T01:09:03.611Z,1029.28
2022-11-12T01:14:02.812Z,1029.22
2022-11-12T01:19:00.993Z,1029.21
2022-11-12T01:24:01.186Z,1029.13
2022-11-12T01:29:00.380Z,1029.12
2022-11-12T01:33:58.558Z,1029.03
2022-11-12T01:38:58.722Z,1029.06
2022-11-12T01:43:57.894Z,1029.12
2022-11-12T01:48:56.065Z,1029.11
2022-11-12T01:53:56.216Z,1029.11
2022-11-12T01:58:54.416Z,1028.99
2022-11-12T02:03:54.571Z,1029.05
2022-11-12T02:08:52.746Z,1029.01
2022-11-12T02:13:51.938Z,1029.02
2022-11-12T02:18:51.119Z,1029.11
2022-11-12T02:23:50.304Z,1029.05
2022-11-12T02:28:49.755Z,1029.01
2022-11-12T02:33:49.894Z,1028.94
2022-11-12T02:38:48.192Z,1029.08
2022-11-12T02:43:48.595Z,1029.02
2022-11-12T02:48:47.724Z,1028.94
2022-11-12T02:53:46.035Z,1028.90
2022-11-12T02:58:45.330Z,1028.89
2022-11-12T03:03:45.619Z,1028.93
2022-11-12T03:08:43.916Z,1028.97
2022-11-12T03:13:43.211Z,1029.01
2022-11-12T03:18:43.510Z,1028.91
2022-11-12T03:23:41.773Z,1028.93
2022-11-12T03:28:42.107Z,1028.92
2022-11-12T03:33:40.400Z,1028.84
2022-11-12T03:38:40.695Z,1028.91
2022-11-12T03:43:38.992Z,1028.98
2022-11-12T03:48:39.115Z,1028.92
2022-11-12T03:53:37.383Z,1028.98
2022-11-12T03:58:37.719Z,1028.87
2022-11-12T04:03:35.811Z,1028.84
2022-11-12T04:08:35.121Z,1028.92
2022-11-12T04:13:35.430Z,1028.83
2022-11-12T04:18:34.784Z,1028.82
2022-11-12T04:23:33.884Z,1028.75
2022-11-12T04:28:33.172Z,1028.72
2022-11-12T04:33:32.456Z,1028.63
2022-11-12T04:38:30.726Z,1028.60
2022-11-12T04:43:31.010Z,1028.58
2022-11-12T04:48:31.327Z,1028.66
2022-11-12T04:53:28.602Z,1028.70
2022-11-12T04:58:28.230Z,1028.70
2022-11-12T05:03:30.080Z,1028.73
2022-11-12T05:08:28.614Z,1028.77
2022-11-12T05:13:26.651Z,1028.80
2022-11-12T05:18:25.187Z,1028.80
2022-11-12T05:23:24.078Z,1028.80
2022-11-12T05:28:24.662Z,1028.80
2022-11-12T05:33:22.629Z,1028.82
2022-11-12T05:38:21.916Z,1028.71
2022-11-12T05:43:22.208Z,1028.73
2022-11-12T05:48:24.357Z,1028.63
2022-11-12T05:53:19.782Z,1028.67
2022-11-12T05:58:19.090Z,1028.68
2022-11-12T06:03:18.421Z,1028.69
2022-11-12T06:08:18.597Z,1028.79
2022-11-12T06:13:17.776Z,1028.77
2022-11-12T06:18:15.895Z,1028.84
2022-11-12T06:23:15.197Z,1028.89
2022-11-12T06:28:15.795Z,1028.88
2022-11-12T06:33:13.727Z,1028.96
2022-11-12T06:38:13.007Z,1028.90
2022-11-12T06:43:12.283Z,1028.96
2022-11-12T06:48:13.736Z,1028.95
2022-11-12T06:53:10.792Z,1028.93
2022-11-12T06:58:11.086Z,1028.78
2022-11-12T07:03:10.360Z,1028.80
2022-11-12T07:08:10.629Z,1028.84
2022-11-12T07:13:07.898Z,1028.84
2022-11-12T07:18:08.226Z,1028.83
2022-11-12T07:23:07.539Z,1028.83
2022-11-12T07:28:05.830Z,1028.89
2022-11-12T07:33:06.152Z,1028.80
2022-11-12T07:38:04.474Z,1028.86
2022-11-12T07:43:03.787Z,1028.82
2022-11-12T07:48:03.092Z,1028.66
2022-11-12T07:53:03.414Z,1028.74
2022-11-12T07:58:02.696Z,1028.70
2022-11-12T08:03:01.010Z,1028.71
2022-11-12T08:08:00.449Z,1028.67
2022-11-12T08:12:59.638Z,1028.64
2022-11-12T08:17:58.919Z,1028.64
2022-11-12T08:22:59.191Z,1028.46
2022-11-12T08:27:58.461Z,1028.57
2022-11-12T08:32:57.747Z,1028.61
2022-11-12T08:37:55.980Z,1028.57
2022-11-12T08:42:55.266Z,1028.53
2022-11-12T08:47:54.564Z,1028.56
2022-11-12T08:52:53.892Z,1028.56
2022-11-12T08:57:53.194Z,1028.60
2022-11-12T09:02:52.460Z,1028.64
2022-11-12T09:07:51.781Z,1028.65
2022-11-12T09:12:50.870Z,1028.66
2022-11-12T09:17:50.181Z,1028.67
2022-11-12T09:22:51.472Z,1028.68
2022-11-12T09:27:49.820Z,1028.75
2022-11-12T09:32:48.122Z,1028.75
2022-11-12T09:37:47.468Z,1028.70
2022-11-12T09:42:46.602Z,1028.74
2022-11-12T09:47:45.771Z,1028.70
2022-11-12T09:52:43.871Z,1028.67
2022-11-12T09:57:45.199Z,1028.58
2022-11-12T10:02:43.523Z,1028.56
2022-11-12T10:07:43.881Z,1028.58
2022-11-12T10:12:42.988Z,1028.56
2022-11-12T10:17:41.289Z,1028.47
2022-11-12T10:22:40.589Z,1028.34
2022-11-12T10:27:39.910Z,1028.36
2022-11-12T10:32:39.032Z,1028.24
2022-11-12T10:37:39.358Z,1028.23
2022-11-12T10:42:38.651Z,1028.28
2022-11-12T10:47:37.977Z,1028.26
2022-11-12T10:52:36.276Z,1028.22
2022-11-12T10:57:39.703Z,1028.17
2022-11-12T11:02:36.808Z,1028.15
2022-11-12T11:07:34.108Z,1028.11
2022-11-12T11:12:34.427Z,1027.92
2022-11-12T11:17:33.750Z,1027.98
2022-11-12T11:22:32.053Z,1027.91
2022-11-12T11:27:31.357Z,1027.88
2022-11-12T11:32:36.108Z,1027.86
2022-11-12T11:37:30.836Z,1027.79
2022-11-12T11:42:29.162Z,1027.70
2022-11-12T11:47:44.002Z,1027.69
2022-11-12T11:52:27.635Z,1027.65
2022-11-12T11:57:26.956Z,1027.54
2022-11-12T12:02:26.109Z,1027.61
2022-11-12T12:07:26.271Z,1027.51
2022-11-12T12:12:27.412Z,1027.42
2022-11-12T12:17:27.846Z,1027.40
2022-11-12T12:22:23.017Z,1027.33
2022-11-12T12:27:22.193Z,1027.30
2022-11-12T12:32:24.505Z,1027.21
2022-11-12T12:37:21.583Z,1027.25
2022-11-12T12:42:19.729Z,1027.17
2022-11-12T12:47:19.876Z,1027.03
2022-11-12T12:52:19.202Z,1027.02
2022-11-12T12:57:18.492Z,1026.97
2022-11-12T13:02:16.882Z,1026.91
2022-11-12T13:07:16.000Z,1026.78
2022-11-12T13:12:15.100Z,1026.73
2022-11-12T13:17:16.410Z,1026.78
2022-11-12T13:22:14.675Z,1026.62
2022-11-12T13:27:13.932Z,1026.62
2022-11-12T13:32:12.228Z,1026.62
2022-11-12T13:37:11.521Z,1026.59
2022-11-12T13:42:10.822Z,1026.62
2022-11-12T13:47:10.110Z,1026.67
2022-11-12T13:52:09.386Z,1026.67
2022-11-12T13:57:13.245Z,1026.75
2022-11-12T14:02:07.832Z,1026.76
2022-11-12T14:07:08.223Z,1026.77
2022-11-12T14:12:07.364Z,1026.70
2022-11-12T14:17:05.697Z,1026.76
2022-11-12T14:22:05.007Z,1026.78
2022-11-12T14:27:04.330Z,1026.71
2022-11-12T14:32:03.628Z,1026.72
2022-11-12T14:37:02.927Z,1026.72
2022-11-12T14:42:02.216Z,1026.69
2022-11-12T14:47:02.514Z,1026.68
2022-11-12T14:52:00.846Z,1026.61
2022-11-12T14:57:00.959Z,1026.58
2022-11-12T15:02:27.726Z,1026.51
2022-11-12T15:06:58.484Z,1026.45
2022-11-12T15:11:57.574Z,1026.52
2022-11-12T15:16:57.812Z,1026.41
2022-11-12T15:21:55.972Z,1026.20
2022-11-12T15:26:55.192Z,1026.34
2022-11-12T15:31:54.505Z,1026.32
2022-11-12T15:36:53.837Z,1026.16
2022-11-12T15:41:53.250Z,1026.07
2022-11-12T15:46:52.384Z,1026.21
2022-11-12T15:51:51.529Z,1026.03
2022-11-12T15:56:50.992Z,1026.24
2022-11-12T16:01:49.135Z,1026.37
2022-11-12T16:06:49.358Z,1026.42
2022-11-12T16:11:48.562Z,1026.34
2022-11-12T16:16:47.765Z,1026.31
2022-11-12T16:21:47.921Z,1026.36
2022-11-12T16:26:46.232Z,1026.34
2022-11-12T16:31:45.572Z,1026.36
2022-11-12T16:36:44.883Z,1026.33
2022-11-12T16:41:45.168Z,1026.33
2022-11-12T16:46:43.581Z,1026.32
2022-11-12T16:51:43.874Z,1026.29
2022-11-12T16:56:43.153Z,1026.26
2022-11-12T17:01:42.359Z,1026.29
2022-11-12T17:06:40.596Z,1026.22
2022-11-12T17:11:39.756Z,1026.23
2022-11-12T17:16:41.165Z,1026.26
2022-11-12T17:21:38.152Z,1026.23
2022-11-12T17:26:38.309Z,1026.16
2022-11-12T17:31:37.634Z,1026.14
2022-11-12T17:36:39.309Z,1026.18
2022-11-12T17:41:35.130Z,1026.12
2022-11-12T17:46:35.629Z,1026.10
2022-11-12T17:51:33.546Z,1026.00
2022-11-12T17:56:36.902Z,1025.91
2022-11-12T18:01:33.088Z,1025.88
2022-11-12T18:06:31.313Z,1025.91
2022-11-12T18:11:30.838Z,1025.90
2022-11-12T18:16:31.036Z,1025.88
2022-11-12T18:21:28.953Z,1025.83
2022-11-12T18:26:30.451Z,1025.75
2022-11-12T18:31:27.717Z,1025.77
2022-11-12T18:36:26.619Z,1025.71
2022-11-12T18:41:24.987Z,1025.69
2022-11-12T18:46:25.354Z,1025.55
2022-11-12T18:51:23.608Z,1025.46
2022-11-12T18:56:23.768Z,1025.48
2022-11-12T19:01:25.231Z,1025.40
2022-11-12T19:06:22.243Z,1025.37
2022-11-12T19:11:22.193Z,1025.34
2022-11-12T19:16:21.498Z,1025.30
2022-11-12T19:21:19.830Z,1025.41
2022-11-12T19:26:18.143Z,1025.32
2022-11-12T19:31:18.241Z,1025.36
2022-11-12T19:36:17.512Z,1025.40
2022-11-12T19:41:19.661Z,1025.36
2022-11-12T19:46:17.054Z,1025.33
2022-11-12T19:51:15.250Z,1025.27
2022-11-12T19:56:14.785Z,1025.36
2022-11-12T20:01:13.693Z,1025.29
2022-11-12T20:06:13.168Z,1025.28
2022-11-12T20:11:13.579Z,1025.23
2022-11-12T20:16:13.381Z,1025.21
2022-11-12T20:21:10.743Z,1025.20
2022-11-12T20:26:10.074Z,1025.04
2022-11-12T20:31:11.660Z,1024.99
2022-11-12T20:36:11.985Z,1024.98
2022-11-12T20:41:07.036Z,1024.94
2022-11-12T20:46:07.059Z,1024.87
2022-11-12T20:51:22.831Z,1024.84
2022-11-12T20:56:04.483Z,1024.75
2022-11-12T21:01:04.721Z,1024.63
2022-11-12T21:06:04.202Z,1024.61
2022-11-12T21:11:03.169Z,1024.56
2022-11-12T21:16:01.427Z,1024.57
2022-11-12T21:21:01.710Z,1024.58
2022-11-12T21:26:01.002Z,1024.60
2022-11-12T21:31:01.407Z,1024.56
2022-11-12T21:36:00.511Z,1024.43
2022-11-12T21:40:59.774Z,1024.44
2022-11-12T21:45:59.030Z,1024.37
2022-11-12T21:50:57.245Z,1024.38
2022-11-12T21:55:56.681Z,1024.28
2022-11-12T22:00:55.702Z,1024.18
2022-11-12T22:05:54.891Z,1024.15
2022-11-12T22:10:54.149Z,1024.14
2022-11-12T22:15:55.337Z,1024.09
2022-11-12T22:20:52.608Z,1024.05
2022-11-12T22:25:51.770Z,1024.01
2022-11-12T22:30:52.095Z,1023.99
2022-11-12T22:35:52.304Z,1024.00
2022-11-12T22:40:48.722Z,1023.93
2022-11-12T22:45:47.886Z,1023.97
2022-11-12T22:50:48.962Z,1023.94
2022-11-12T22:55:47.245Z,1023.82
2022-11-12T23:00:48.501Z,1023.84
2022-11-12T23:05:45.784Z,1023.76
2022-11-12T23:10:46.061Z,1023.73
2022-11-12T23:15:44.209Z,1023.66
2022-11-12T23:20:43.416Z,1023.59
2022-11-12T23:25:43.753Z,1023.52
2022-11-12T23:31:02.843Z,1023.44
2022-11-12T23:35:39.998Z,1023.37
2022-11-12T23:40:41.167Z,1023.31
2022-11-12T23:45:39.363Z,1023.19
2022-11-12T23:50:38.549Z,1023.12
2022-11-12T23:55:38.648Z,1023.17
